createdAt,value
2023-03-29T00:01:59.047Z,30.99
2023-03-29T00:05:59.276Z,32.75
2023-03-29T00:09:59.400Z,31.36
2023-03-29T00:13:59.636Z,33.27
2023-03-29T00:18:00.347Z,36.33
2023-03-29T00:22:00.029Z,34.16
2023-03-29T00:26:00.310Z,32.66
2023-03-29T00:30:00.471Z,34.59
2023-03-29T00:34:00.418Z,36.91
2023-03-29T00:38:00.785Z,32.57
2023-03-29T00:42:00.789Z,31.77
2023-03-29T00:46:00.443Z,36.60
2023-03-29T00:50:00.324Z,35.03
2023-03-29T00:54:00.322Z,32.86
2023-03-29T00:58:00.292Z,35.31
2023-03-29T01:02:00.342Z,38.98
2023-03-29T01:06:00.221Z,33.44
2023-03-29T01:10:00.300Z,35.73
2023-03-29T01:14:00.287Z,39.24
2023-03-29T01:18:00.825Z,35.53
2023-03-29T01:22:00.793Z,34.77
2023-03-29T01:26:00.939Z,37.31
2023-03-29T01:30:01.334Z,32.22
2023-03-29T01:34:01.328Z,27.37
2023-03-29T01:38:01.319Z,33.94
2023-03-29T01:42:01.355Z,32.70
2023-03-29T01:46:01.027Z,34.74
2023-03-29T01:50:01.007Z,30.14
2023-03-29T01:54:01.326Z,38.15
2023-03-29T01:58:00.919Z,28.38
2023-03-29T02:02:00.883Z,34.37
2023-03-29T02:06:01.342Z,35.40
2023-03-29T02:10:00.785Z,40.18
2023-03-29T02:14:00.821Z,39.69
2023-03-29T02:18:00.870Z,40.22
2023-03-29T02:22:00.699Z,32.15
2023-03-29T02:26:00.838Z,40.26
2023-03-29T02:30:00.820Z,30.23
2023-03-29T02:34:00.848Z,37.07
2023-03-29T02:38:00.805Z,31.18
2023-03-29T02:42:00.532Z,36.39
2023-03-29T02:46:00.837Z,32.32
2023-03-29T02:50:00.851Z,35.55
2023-03-29T02:54:00.855Z,34.11
2023-03-29T02:58:00.847Z,36.12
2023-03-29T03:02:01.089Z,37.32
2023-03-29T03:06:01.342Z,36.26
2023-03-29T03:10:00.937Z,39.04
2023-03-29T03:14:01.372Z,36.63
2023-03-29T03:18:00.943Z,31.17
2023-03-29T03:22:00.859Z,36.92
2023-03-29T03:26:00.847Z,36.35
2023-03-29T03:30:00.765Z,37.08
2023-03-29T03:34:00.853Z,38.70
2023-03-29T03:38:00.697Z,27.59
2023-03-29T03:42:00.911Z,39.51
2023-03-29T03:46:01.424Z,28.17
2023-03-29T03:50:01.336Z,36.30
2023-03-29T03:54:01.876Z,32.31
2023-03-29T03:58:01.744Z,32.40
2023-03-29T04:02:02.476Z,37.00
2023-03-29T04:06:02.388Z,33.50
2023-03-29T04:10:02.871Z,27.67
2023-03-29T04:14:02.601Z,32.29
2023-03-29T04:18:02.925Z,40.53
2023-03-29T04:22:03.372Z,33.91
2023-03-29T04:26:03.357Z,34.02
2023-03-29T04:30:02.986Z,38.54
2023-03-29T04:34:03.414Z,39.82
2023-03-29T04:38:02.883Z,38.84
2023-03-29T04:42:02.876Z,35.50
2023-03-29T04:46:02.987Z,24.82
2023-03-29T04:50:02.897Z,26.53
2023-03-29T04:54:02.768Z,36.20
2023-03-29T04:58:02.881Z,43.70
2023-03-29T05:02:02.881Z,40.78
2023-03-29T05:06:03.013Z,49.13
2023-03-29T05:10:03.389Z,45.47
2023-03-29T05:14:09.474Z,43.61
2023-03-29T05:18:03.461Z,43.15
2023-03-29T05:22:03.408Z,45.01
2023-03-29T05:26:03.463Z,43.27
2023-03-29T05:30:03.412Z,48.35
2023-03-29T05:34:03.156Z,45.30
2023-03-29T05:38:03.429Z,40.67
2023-03-29T05:42:03.916Z,41.87
2023-03-29T05:46:03.449Z,47.64
2023-03-29T05:50:03.002Z,64.40
2023-03-29T05:54:03.418Z,66.39
2023-03-29T05:58:03.419Z,82.27
2023-03-29T06:02:03.464Z,86.64
2023-03-29T06:06:03.928Z,87.60
2023-03-29T06:10:03.631Z,91.27
2023-03-29T06:14:03.928Z,88.96
2023-03-29T06:18:04.497Z,86.96
2023-03-29T06:22:04.436Z,85.31
2023-03-29T06:26:04.926Z,85.65
2023-03-29T06:30:04.698Z,84.86
2023-03-29T06:34:04.932Z,85.22
2023-03-29T06:38:05.421Z,82.78
2023-03-29T06:42:16.894Z,80.17
2023-03-29T06:46:06.461Z,80.28
2023-03-29T06:50:05.215Z,84.00
2023-03-29T06:54:05.449Z,85.14
2023-03-29T06:58:05.948Z,67.93
2023-03-29T07:02:05.959Z,50.24
2023-03-29T07:06:05.925Z,49.80
2023-03-29T07:10:06.442Z,55.52
2023-03-29T07:14:06.463Z,56.80
2023-03-29T07:18:06.494Z,57.93
2023-03-29T07:22:06.447Z,42.54
2023-03-29T07:26:06.248Z,27.23
2023-03-29T07:30:06.450Z,28.43
2023-03-29T07:34:06.508Z,25.31
2023-03-29T07:38:06.963Z,25.00
2023-03-29T07:42:06.975Z,25.60
2023-03-29T07:46:06.931Z,0.00
2023-03-29T07:50:06.967Z,70.96
2023-03-29T07:54:07.450Z,105.13
2023-03-29T07:58:07.450Z,175.70
2023-03-29T08:02:07.230Z,251.54
2023-03-29T08:06:07.489Z,249.91
2023-03-29T08:10:07.500Z,249.71
2023-03-29T08:14:07.983Z,250.03
2023-03-29T08:18:08.112Z,250.00
2023-03-29T08:22:07.680Z,250.00
2023-03-29T08:26:07.949Z,250.10
2023-03-29T08:30:08.460Z,248.96
2023-03-29T08:34:08.462Z,246.51
2023-03-29T08:38:08.469Z,247.61
2023-03-29T08:42:08.521Z,242.28
2023-03-29T08:46:08.987Z,182.90
2023-03-29T08:50:09.013Z,237.98
2023-03-29T08:54:09.511Z,178.44
2023-03-29T08:58:09.462Z,149.03
2023-03-29T09:02:09.179Z,69.68
2023-03-29T09:06:09.466Z,108.18
2023-03-29T09:10:09.498Z,124.90
2023-03-29T09:14:09.488Z,135.18
2023-03-29T09:18:09.714Z,145.34
2023-03-29T09:22:10.001Z,152.77
2023-03-29T09:26:09.977Z,159.72
2023-03-29T09:30:10.001Z,162.42
2023-03-29T09:34:10.492Z,161.25
2023-03-29T09:38:10.229Z,167.16
2023-03-29T09:42:10.468Z,174.36
2023-03-29T09:46:10.513Z,174.77
2023-03-29T09:50:22.978Z,175.55
2023-03-29T09:54:11.499Z,177.44
2023-03-29T09:58:10.567Z,173.30
2023-03-29T10:02:10.780Z,173.29
2023-03-29T10:06:10.995Z,168.97
2023-03-29T10:10:11.217Z,166.14
2023-03-29T10:14:11.368Z,159.00
2023-03-29T10:18:11.382Z,158.29
2023-03-29T10:22:11.304Z,156.15
2023-03-29T10:26:11.268Z,156.16
2023-03-29T10:30:11.235Z,151.15
2023-03-29T10:34:11.922Z,148.77
2023-03-29T10:38:11.164Z,146.66
2023-03-29T10:42:11.532Z,141.63
2023-03-29T10:46:11.585Z,143.99
2023-03-29T10:50:11.510Z,140.36
2023-03-29T10:54:10.994Z,140.90
2023-03-29T10:58:11.492Z,134.76
2023-03-29T11:02:11.271Z,132.03
2023-03-29T11:06:11.492Z,133.28
2023-03-29T11:10:12.046Z,131.54
2023-03-29T11:14:11.758Z,131.00
2023-03-29T11:18:12.027Z,127.34
2023-03-29T11:22:12.523Z,125.91
2023-03-29T11:26:12.505Z,125.50
2023-03-29T11:30:12.091Z,122.59
2023-03-29T11:34:12.049Z,122.99
2023-03-29T11:38:12.194Z,124.62
2023-03-29T11:42:11.985Z,121.45
2023-03-29T11:46:12.005Z,117.81
2023-03-29T11:50:11.893Z,118.29
2023-03-29T11:54:11.856Z,120.18
2023-03-29T11:58:11.814Z,116.77
2023-03-29T12:02:11.963Z,113.69
2023-03-29T12:06:12.080Z,114.46
2023-03-29T12:10:12.115Z,111.13
2023-03-29T12:14:12.532Z,111.39
2023-03-29T12:18:12.538Z,110.38
2023-03-29T12:22:12.509Z,108.06
2023-03-29T12:26:13.051Z,105.20
2023-03-29T12:30:12.819Z,108.11
2023-03-29T12:34:12.907Z,102.66
2023-03-29T12:38:13.059Z,105.38
2023-03-29T12:42:13.131Z,104.72
2023-03-29T12:46:13.226Z,101.68
2023-03-29T12:50:13.304Z,100.05
2023-03-29T12:54:13.464Z,100.14
2023-03-29T12:58:13.498Z,97.87
2023-03-29T13:02:20.694Z,97.45
2023-03-29T13:06:13.535Z,99.04
2023-03-29T13:10:13.539Z,103.31
2023-03-29T13:14:13.494Z,105.39
2023-03-29T13:18:13.609Z,103.40
2023-03-29T13:22:13.409Z,104.23
2023-03-29T13:26:13.360Z,101.81
2023-03-29T13:30:13.322Z,101.83
2023-03-29T13:34:13.300Z,99.37
2023-03-29T13:38:13.349Z,99.24
2023-03-29T13:42:13.614Z,97.60
2023-03-29T13:46:13.178Z,97.19
2023-03-29T13:50:13.157Z,95.39
2023-03-29T13:54:13.176Z,94.69
2023-03-29T13:58:13.254Z,97.37
2023-03-29T14:02:13.410Z,95.07
2023-03-29T14:06:13.417Z,91.30
2023-03-29T14:10:13.478Z,92.40
2023-03-29T14:14:13.582Z,93.67
2023-03-29T14:18:13.640Z,90.10
2023-03-29T14:22:13.744Z,90.88
2023-03-29T14:26:14.101Z,89.21
2023-03-29T14:30:14.088Z,92.37
2023-03-29T14:34:14.125Z,90.52
2023-03-29T14:38:14.609Z,89.21
2023-03-29T14:42:14.237Z,90.63
2023-03-29T14:46:14.451Z,88.41
2023-03-29T14:50:14.626Z,86.88
2023-03-29T14:54:15.097Z,87.76
2023-03-29T14:58:15.113Z,87.89
2023-03-29T15:02:15.004Z,77.67
2023-03-29T15:06:14.957Z,82.16
2023-03-29T15:10:15.122Z,81.69
2023-03-29T15:14:15.022Z,79.28
2023-03-29T15:18:15.649Z,83.00
2023-03-29T15:22:15.210Z,79.08
2023-03-29T15:26:15.282Z,81.12
2023-03-29T15:30:15.626Z,82.71
2023-03-29T15:34:15.626Z,81.38
2023-03-29T15:38:15.605Z,82.94
2023-03-29T15:42:15.565Z,79.70
2023-03-29T15:46:15.655Z,81.22
2023-03-29T15:50:16.157Z,81.77
2023-03-29T15:54:16.148Z,83.56
2023-03-29T15:58:16.258Z,80.30
2023-03-29T16:02:16.088Z,76.54
2023-03-29T16:06:15.938Z,78.62
2023-03-29T16:10:16.125Z,80.89
2023-03-29T16:14:16.077Z,78.26
2023-03-29T16:18:16.161Z,81.00
2023-03-29T16:22:16.261Z,78.08
2023-03-29T16:26:16.645Z,75.12
2023-03-29T16:30:16.320Z,73.79
2023-03-29T16:34:16.676Z,77.18
2023-03-29T16:38:16.389Z,76.57
2023-03-29T16:42:16.420Z,72.20
2023-03-29T16:46:16.652Z,75.94
2023-03-29T16:50:16.581Z,77.89
2023-03-29T16:54:16.669Z,77.89
2023-03-29T16:58:16.612Z,78.84
2023-03-29T17:02:16.634Z,78.93
2023-03-29T17:06:16.722Z,73.63
2023-03-29T17:10:17.154Z,75.51
2023-03-29T17:14:16.823Z,74.71
2023-03-29T17:18:16.874Z,73.76
2023-03-29T17:22:17.144Z,73.50
2023-03-29T17:26:17.015Z,71.48
2023-03-29T17:30:17.135Z,73.17
2023-03-29T17:34:17.066Z,73.56
2023-03-29T17:38:17.200Z,71.90
2023-03-29T17:42:17.673Z,72.21
2023-03-29T17:46:17.301Z,73.31
2023-03-29T17:50:17.661Z,69.55
2023-03-29T17:54:17.409Z,70.28
2023-03-29T17:58:17.692Z,70.02
2023-03-29T18:02:17.561Z,72.36
2023-03-29T18:06:17.650Z,72.00
2023-03-29T18:10:17.773Z,72.85
2023-03-29T18:14:17.928Z,69.31
2023-03-29T18:18:18.717Z,67.28
2023-03-29T18:22:18.669Z,68.79
2023-03-29T18:26:18.657Z,70.30
2023-03-29T18:30:19.179Z,71.53
2023-03-29T18:34:18.925Z,67.31
2023-03-29T18:38:19.212Z,70.34
2023-03-29T18:42:19.178Z,68.16
2023-03-29T18:46:19.230Z,68.86
2023-03-29T18:50:19.189Z,68.66
2023-03-29T18:54:19.179Z,67.76
2023-03-29T18:58:19.189Z,69.13
2023-03-29T19:02:19.307Z,62.77
2023-03-29T19:06:19.712Z,69.50
2023-03-29T19:10:19.280Z,69.53
2023-03-29T19:14:19.351Z,67.19
2023-03-29T19:18:19.700Z,64.10
2023-03-29T19:22:20.204Z,68.37
2023-03-29T19:26:19.737Z,64.83
2023-03-29T19:30:19.562Z,65.49
2023-03-29T19:34:19.612Z,65.66
2023-03-29T19:38:19.692Z,62.41
2023-03-29T19:42:19.682Z,62.88
2023-03-29T19:46:20.206Z,66.59
2023-03-29T19:50:19.732Z,64.63
2023-03-29T19:54:20.201Z,63.99
2023-03-29T19:58:20.202Z,61.87
2023-03-29T20:02:19.914Z,63.56
2023-03-29T20:06:20.218Z,65.19
2023-03-29T20:10:20.073Z,68.05
2023-03-29T20:14:20.144Z,64.03
2023-03-29T20:18:20.213Z,62.98
2023-03-29T20:22:20.217Z,65.27
2023-03-29T20:26:20.735Z,63.82
2023-03-29T20:30:20.294Z,60.76
2023-03-29T20:34:20.384Z,62.62
2023-03-29T20:38:20.705Z,63.52
2023-03-29T20:42:20.438Z,57.68
2023-03-29T20:46:20.775Z,62.31
2023-03-29T20:50:20.514Z,60.47
2023-03-29T20:54:20.724Z,59.10
2023-03-29T20:58:20.760Z,61.88
2023-03-29T21:02:20.782Z,60.75
2023-03-29T21:06:20.750Z,62.58
2023-03-29T21:10:20.755Z,60.42
2023-03-29T21:14:21.265Z,58.58
2023-03-29T21:18:21.229Z,58.94
2023-03-29T21:22:20.883Z,61.17
2023-03-29T21:26:20.938Z,60.67
2023-03-29T21:30:21.257Z,59.19
2023-03-29T21:34:21.320Z,55.10
2023-03-29T21:38:21.262Z,54.15
2023-03-29T21:42:21.261Z,56.46
2023-03-29T21:46:21.216Z,57.71
2023-03-29T21:50:21.761Z,52.62
2023-03-29T21:54:21.408Z,58.45
2023-03-29T21:58:21.760Z,57.98
2023-03-29T22:02:21.644Z,50.51
2023-03-29T22:06:21.651Z,59.97
2023-03-29T22:10:21.735Z,55.59
2023-03-29T22:14:22.304Z,56.55
2023-03-29T22:18:21.813Z,55.57
2023-03-29T22:22:22.259Z,55.90
2023-03-29T22:26:21.905Z,57.85
2023-03-29T22:30:22.250Z,54.93
2023-03-29T22:34:22.252Z,52.65
2023-03-29T22:38:22.064Z,56.06
2023-03-29T22:42:22.252Z,53.49
2023-03-29T22:46:22.227Z,55.25
2023-03-29T22:50:22.285Z,56.58
2023-03-29T22:54:22.265Z,53.54
2023-03-29T22:58:22.790Z,51.83
2023-03-29T23:02:22.382Z,56.20
2023-03-29T23:06:22.360Z,55.12
2023-03-29T23:10:22.761Z,53.87
2023-03-29T23:14:22.788Z,52.21
2023-03-29T23:18:22.792Z,51.53
2023-03-29T23:22:22.597Z,53.13
2023-03-29T23:26:22.766Z,52.69
2023-03-29T23:30:22.765Z,50.41
2023-03-29T23:34:22.789Z,51.40
2023-03-29T23:38:22.805Z,52.10
2023-03-29T23:42:22.803Z,51.58
2023-03-29T23:46:23.300Z,51.83
2023-03-29T23:50:23.271Z,47.64
2023-03-29T23:54:22.977Z,48.91
